Audrey II — ZGBC7 — position and weather

sailwx.info

Track history (hours):
 
Tides and Currents Weather Stations Pressure Air Temp Water Temp Dewpoint Dewpoint Depression Visibility Wind Speed Wind Dir Waves Ship Positions

Audrey II

Last reported at 2018-Jun-22 08:19 UTC. Time now 2018-Jun-24 04:55 UTC.
Position N 39°19' E 002°58'.

Length 31 m.

Type: Sailing vessel. MMSI: 319023500.

Date/timePositionNaut miles runAvg speedWind from/ knotsBaromVisibWave heightAir tempDewpointWater temp
2018-Jun-22 08:19N 39°19' E 002°58'1 2.9
2018-Jun-22 08:00N 39°20' E 002°59'0 0.0
2018-Jun-22 04:15N 39°20' E 002°59'0 0.0
2018-Jun-22 03:45N 39°20' E 002°59'0 0.0
2018-Jun-22 03:30N 39°20' E 002°59'0 0.0
2018-Jun-22 02:21N 39°20' E 002°59'0 0.0
2018-Jun-22 02:00N 39°20' E 002°59'0 0.0
2018-Jun-22 01:30N 39°20' E 002°59'0 0.0
2018-Jun-22 00:57N 39°20' E 002°59'0 0.0
2018-Jun-22 00:24N 39°20' E 002°59'0 0.0
2018-Jun-22 00:00N 39°20' E 002°59'0 0.0
2018-Jun-21 23:30N 39°20' E 002°59'0 0.0
2018-Jun-21 22:45N 39°20' E 002°59'0 0.0
2018-Jun-21 20:15N 39°20' E 002°59'0 0.0
2018-Jun-21 19:57N 39°20' E 002°59'0 0.0
2018-Jun-21 17:48N 39°20' E 002°59'0 0.0
2018-Jun-21 17:24N 39°20' E 002°59'0 0.0
2018-Jun-21 16:57N 39°20' E 002°59'0 0.0
2018-Jun-21 16:27N 39°20' E 002°59'0 0.0
2018-Jun-21 15:06N 39°20' E 002°59'0 0.0
2018-Jun-21 14:51N 39°20' E 002°59'1 3.5
2018-Jun-21 14:30N 39°20' E 002°57'8 7.6
2018-Jun-21 13:29N 39°21' E 002°47'3 6.9
2018-Jun-21 13:00N 39°24' E 002°44'3 5.7
2018-Jun-21 12:30N 39°26' E 002°42'3 5.2
2018-Jun-21 11:58N 39°29' E 002°42'1 2.0
2018-Jun-21 11:30N 39°30' E 002°43'3 5.4
2018-Jun-21 11:00N 39°32' E 002°40'2 3.1
2018-Jun-21 10:30N 39°31' E 002°42'0 1.0
2018-Jun-21 10:00N 39°31' E 002°41'3 6.2
2018-Jun-21 09:30N 39°33' E 002°38'1 1.3
2018-Jun-21 09:00N 39°34' E 002°38'0 0.0
2018-Jun-21 08:30N 39°34' E 002°38'0 0.0
2018-Jun-21 08:00N 39°34' E 002°38'0 0.0
2018-Jun-21 07:29N 39°34' E 002°38'0 0.0
2018-Jun-21 06:59N 39°34' E 002°38'0 0.0
2018-Jun-21 06:29N 39°34' E 002°38'0 0.0
2018-Jun-21 05:59N 39°34' E 002°38'0 0.0
2018-Jun-21 05:29N 39°34' E 002°38'0 0.0
2018-Jun-21 04:59N 39°34' E 002°38'0 0.0
2018-Jun-21 04:29N 39°34' E 002°38'0 0.0
2018-Jun-21 03:59N 39°34' E 002°38'0 0.0
2018-Jun-21 03:29N 39°34' E 002°38'0 0.0
2018-Jun-21 02:59N 39°34' E 002°38'0 0.0
2018-Jun-21 02:29N 39°34' E 002°38'0 0.0
2018-Jun-21 01:59N 39°34' E 002°38'0 0.0
2018-Jun-21 01:28N 39°34' E 002°38'0 0.0
2018-Jun-21 00:59N 39°34' E 002°38'0 0.0
2018-Jun-21 00:28N 39°34' E 002°38'0 0.0
2018-Jun-20 23:58N 39°34' E 002°38'0 0.0
2018-Jun-20 23:28N 39°34' E 002°38'0 0.0
2018-Jun-20 22:58N 39°34' E 002°38'0 0.0
2018-Jun-20 22:28N 39°34' E 002°38'0 0.0
2018-Jun-20 21:58N 39°34' E 002°38'0 0.0
2018-Jun-20 21:29N 39°34' E 002°38'0 0.0
2018-Jun-20 20:58N 39°34' E 002°38'0 0.0
2018-Jun-20 20:28N 39°34' E 002°38'0 0.0
2018-Jun-20 19:59N 39°34' E 002°38'0 0.0
2018-Jun-20 19:29N 39°34' E 002°38'0 0.0
2018-Jun-20 18:59N 39°34' E 002°38'0 0.0
2018-Jun-20 18:28N 39°34' E 002°38'0 0.0
2018-Jun-20 17:59N 39°34' E 002°38'0 0.0
2018-Jun-20 17:28N 39°34' E 002°38'0 0.0
2018-Jun-20 16:55N 39°34' E 002°38'0 0.0
2018-Jun-20 16:28N 39°34' E 002°38'0 0.0
2018-Jun-20 15:58N 39°34' E 002°38'0 0.0
2018-Jun-20 15:28N 39°34' E 002°38'0 0.0
2018-Jun-20 14:55N 39°34' E 002°38'0 0.0
2018-Jun-20 14:28N 39°34' E 002°38'0 0.0
2018-Jun-20 13:58N 39°34' E 002°38'0 0.0
2018-Jun-20 13:28N 39°34' E 002°38'0 0.0
2018-Jun-20 12:58N 39°34' E 002°38'0 0.0
2018-Jun-20 12:28N 39°34' E 002°38'0 0.0
2018-Jun-20 11:59N 39°34' E 002°38'0 0.0
2018-Jun-20 11:28N 39°34' E 002°38'0 0.0
2018-Jun-20 10:58N 39°34' E 002°38'0 0.0
2018-Jun-20 10:29N 39°34' E 002°38'0 0.0
2018-Jun-20 09:58N 39°34' E 002°38'0 0.0
2018-Jun-20 09:28N 39°34' E 002°38'0 0.0
2018-Jun-20 08:57N 39°34' E 002°38'0 0.0
2018-Jun-20 08:28N 39°34' E 002°38'0 0.0
2018-Jun-20 08:00N 39°34' E 002°38'0 0.0
2018-Jun-20 07:29N 39°34' E 002°38'0 0.0
2018-Jun-20 06:58N 39°34' E 002°38'0 0.0
2018-Jun-20 06:28N 39°34' E 002°38'0 0.0
2018-Jun-20 05:58N 39°34' E 002°38'0 0.0
2018-Jun-20 05:29N 39°34' E 002°38'0 0.0
2018-Jun-20 04:58N 39°34' E 002°38'0 0.0
2018-Jun-20 04:28N 39°34' E 002°38'0 0.0
2018-Jun-20 03:58N 39°34' E 002°38'0 0.0
2018-Jun-20 03:28N 39°34' E 002°38'0 0.0
2018-Jun-20 02:58N 39°34' E 002°38'0 0.0
2018-Jun-20 02:28N 39°34' E 002°38'0 0.0
2018-Jun-20 01:58N 39°34' E 002°38'0 0.0
2018-Jun-20 01:28N 39°34' E 002°38'0 0.0
2018-Jun-20 00:58N 39°34' E 002°38'0 0.0
2018-Jun-20 00:28N 39°34' E 002°38'0 0.0
2018-Jun-19 23:59N 39°34' E 002°38'0 0.0
2018-Jun-19 23:28N 39°34' E 002°38'0 0.0
2018-Jun-19 22:58N 39°34' E 002°38'0 0.0
2018-Jun-19 22:25N 39°34' E 002°38'0 0.0
2018-Jun-19 21:58N 39°34' E 002°38'0 0.0
2018-Jun-19 21:28N 39°34' E 002°38'0 0.0
2018-Jun-19 20:58N 39°34' E 002°38'0 0.0
2018-Jun-19 20:28N 39°34' E 002°38'0 0.0
2018-Jun-19 19:58N 39°34' E 002°38'0 0.0
2018-Jun-19 19:28N 39°34' E 002°38'0 0.0
2018-Jun-19 18:58N 39°34' E 002°38'0 0.0
2018-Jun-19 18:28N 39°34' E 002°38'0 0.0
2018-Jun-19 17:59N 39°34' E 002°38'0 0.0
2018-Jun-19 17:28N 39°34' E 002°38'0 0.0
2018-Jun-19 16:58N 39°34' E 002°38'0 0.0
2018-Jun-19 16:28N 39°34' E 002°38'0 0.0
2018-Jun-19 15:58N 39°34' E 002°38'0 0.0
2018-Jun-19 15:28N 39°34' E 002°38'0 0.0
2018-Jun-19 14:59N 39°34' E 002°38'0 0.0
2018-Jun-19 14:28N 39°34' E 002°38'0 0.0
2018-Jun-19 13:59N 39°34' E 002°38'0 0.0
2018-Jun-19 13:30N 39°34' E 002°38'0 0.0
2018-Jun-19 12:58N 39°34' E 002°38'0 0.0
2018-Jun-19 12:28N 39°34' E 002°38'0 0.0
2018-Jun-19 11:58N 39°34' E 002°38'0 0.0
2018-Jun-19 11:28N 39°34' E 002°38'0 0.0
2018-Jun-19 10:58N 39°34' E 002°38'0 0.0
2018-Jun-19 10:28N 39°34' E 002°38'0 0.0
2018-Jun-19 09:58N 39°34' E 002°38'0 0.0
2018-Jun-19 09:28N 39°34' E 002°38'0 0.0
2018-Jun-19 08:58N 39°34' E 002°38'0 0.0
2018-Jun-19 08:28N 39°34' E 002°38'0 0.0
2018-Jun-19 07:58N 39°34' E 002°38'0 0.0
2018-Jun-19 07:28N 39°34' E 002°38'0 0.0
2018-Jun-19 06:58N 39°34' E 002°38'0 0.0
2018-Jun-19 06:28N 39°34' E 002°38'0 0.0
2018-Jun-19 05:58N 39°34' E 002°38'0 0.0
2018-Jun-19 05:28N 39°34' E 002°38'0 0.0
2018-Jun-19 04:58N 39°34' E 002°38'0 0.0
2018-Jun-19 04:30N 39°34' E 002°38'0 0.0
2018-Jun-19 04:00N 39°34' E 002°38'0 0.0
2018-Jun-19 03:28N 39°34' E 002°38'0 0.0
2018-Jun-19 02:58N 39°34' E 002°38'0 0.0
2018-Jun-19 02:29N 39°34' E 002°38'0 0.0
2018-Jun-19 01:59N 39°34' E 002°38'0 0.0
2018-Jun-19 01:29N 39°34' E 002°38'0 0.0
2018-Jun-19 00:58N 39°34' E 002°38'0 0.0
2018-Jun-19 00:28N 39°34' E 002°38'0 0.0
2018-Jun-18 23:58N 39°34' E 002°38'0 0.0
2018-Jun-18 23:28N 39°34' E 002°38'0 0.0
2018-Jun-18 22:58N 39°34' E 002°38'0 0.0
2018-Jun-18 22:28N 39°34' E 002°38'0 0.0
2018-Jun-18 21:58N 39°34' E 002°38'0 0.0
2018-Jun-18 21:28N 39°34' E 002°38'0 0.0
2018-Jun-18 20:58N 39°34' E 002°38'0 0.0
2018-Jun-18 20:28N 39°34' E 002°38'0 0.0
2018-Jun-18 19:58N 39°34' E 002°38'0 0.0
2018-Jun-18 19:28N 39°34' E 002°38'0 0.0
2018-Jun-18 18:58N 39°34' E 002°38'0 0.0
2018-Jun-18 18:28N 39°34' E 002°38'0 0.0
2018-Jun-18 17:58N 39°34' E 002°38'0 0.0
2018-Jun-18 17:28N 39°34' E 002°38'0 0.0
2018-Jun-18 16:58N 39°34' E 002°38'0 0.0
2018-Jun-18 16:28N 39°34' E 002°38'0 0.0
2018-Jun-18 15:55N 39°34' E 002°38'0 0.0
2018-Jun-18 15:30N 39°34' E 002°38'0 0.0
2018-Jun-18 14:58N 39°34' E 002°38'0 0.0
2018-Jun-18 14:28N 39°34' E 002°38'0 0.0
2018-Jun-18 13:58N 39°34' E 002°38'0 0.0
2018-Jun-18 13:28N 39°34' E 002°38'0 0.0
2018-Jun-18 12:58N 39°34' E 002°38'0 0.0
2018-Jun-18 12:28N 39°34' E 002°38'0 0.0
2018-Jun-18 11:58N 39°34' E 002°38'0 0.0
2018-Jun-18 11:25N 39°34' E 002°38'0 0.0
2018-Jun-18 10:58N 39°34' E 002°38'0 0.0
2018-Jun-18 10:28N 39°34' E 002°38'0 0.0
2018-Jun-18 09:58N 39°34' E 002°38'0 0.0
2018-Jun-18 09:30N 39°34' E 002°38'0 0.0
2018-Jun-18 09:00N 39°34' E 002°38'0 0.0
2018-Jun-18 08:30N 39°34' E 002°38'0 0.0
2018-Jun-18 08:00N 39°34' E 002°38'0 0.0
2018-Jun-18 07:30N 39°34' E 002°38'0 0.0
2018-Jun-18 07:00N 39°34' E 002°38'0 0.0
2018-Jun-18 06:30N 39°34' E 002°38'0 0.0
2018-Jun-18 05:59N 39°34' E 002°38'0 0.0
2018-Jun-18 05:29N 39°34' E 002°38'0 0.0
2018-Jun-18 04:59N 39°34' E 002°38'0 0.0
2018-Jun-18 04:29N 39°34' E 002°38'0 0.0
2018-Jun-18 03:59N 39°34' E 002°38'0 0.0
2018-Jun-18 03:29N 39°34' E 002°38'0 0.0
2018-Jun-18 02:59N 39°34' E 002°38'0 0.0
2018-Jun-18 02:29N 39°34' E 002°38'0 0.0
2018-Jun-18 01:59N 39°34' E 002°38'0 0.0
2018-Jun-18 01:29N 39°34' E 002°38'0 0.0
2018-Jun-18 00:59N 39°34' E 002°38'0 0.0
2018-Jun-18 00:29N 39°34' E 002°38'0 0.0
2018-Jun-17 23:59N 39°34' E 002°38'0 0.0
2018-Jun-17 23:29N 39°34' E 002°38'0 0.0
2018-Jun-17 22:59N 39°34' E 002°38'0 0.0
2018-Jun-17 22:29N 39°34' E 002°38'0 0.0
2018-Jun-17 21:59N 39°34' E 002°38'0 0.0
2018-Jun-17 21:29N 39°34' E 002°38'0 0.0
2018-Jun-17 20:59N 39°34' E 002°38'0 0.0
2018-Jun-17 20:29N 39°34' E 002°38'0 0.0
2018-Jun-17 19:59N 39°34' E 002°38'0 0.0
2018-Jun-17 19:29N 39°34' E 002°38'0 0.0
2018-Jun-17 18:59N 39°34' E 002°38'0 0.0
2018-Jun-17 18:29N 39°34' E 002°38'0 0.0
2018-Jun-17 17:59N 39°34' E 002°38'0 0.0
2018-Jun-17 17:29N 39°34' E 002°38'0 0.0
2018-Jun-17 16:59N 39°34' E 002°38'0 0.0
2018-Jun-17 16:29N 39°34' E 002°38'0 0.0
2018-Jun-17 15:56N 39°34' E 002°38'0 0.0
2018-Jun-17 15:29N 39°34' E 002°38'0 0.0
2018-Jun-17 14:59N 39°34' E 002°38'0 0.0
2018-Jun-17 14:29N 39°34' E 002°38'0 0.0
2018-Jun-17 13:59N 39°34' E 002°38'0 0.0
2018-Jun-17 13:29N 39°34' E 002°38'0 0.0
2018-Jun-17 12:59N 39°34' E 002°38'0 0.0
2018-Jun-17 12:29N 39°34' E 002°38'0 0.0
2018-Jun-17 11:59N 39°34' E 002°38'0 0.0
2018-Jun-17 11:29N 39°34' E 002°38'0 0.0
2018-Jun-17 10:59N 39°34' E 002°38'0 0.0
2018-Jun-17 10:29N 39°34' E 002°38'0 0.0
2018-Jun-17 09:59N 39°34' E 002°38'0 0.0
2018-Jun-17 09:29N 39°34' E 002°38'0 0.0
2018-Jun-17 08:59N 39°34' E 002°38'0 0.0
2018-Jun-17 08:29N 39°34' E 002°38'0 0.0
2018-Jun-17 07:59N 39°34' E 002°38'0 0.0
2018-Jun-17 07:29N 39°34' E 002°38'0 0.0
2018-Jun-17 06:56N 39°34' E 002°38'0 0.0
2018-Jun-17 06:29N 39°34' E 002°38'0 0.0
2018-Jun-17 05:59N 39°34' E 002°38'0 0.0
2018-Jun-17 05:29N 39°34' E 002°38'0 0.0
2018-Jun-17 04:59N 39°34' E 002°38'0 0.0
2018-Jun-17 04:29N 39°34' E 002°38'0 0.0
2018-Jun-17 03:59N 39°34' E 002°38'0 0.0
2018-Jun-17 03:29N 39°34' E 002°38'0 0.0
2018-Jun-17 02:59N 39°34' E 002°38'0 0.0
2018-Jun-17 02:29N 39°34' E 002°38'0 0.0
2018-Jun-17 01:59N 39°34' E 002°38'0 0.0
2018-Jun-17 01:29N 39°34' E 002°38'0 0.0
2018-Jun-17 00:59N 39°34' E 002°38'0 0.0
2018-Jun-17 00:29N 39°34' E 002°38'0 0.0
2018-Jun-16 23:59N 39°34' E 002°38'0 0.0
2018-Jun-16 23:29N 39°34' E 002°38'0 0.0
2018-Jun-16 22:59N 39°34' E 002°38'0 0.0
2018-Jun-16 22:29N 39°34' E 002°38'0 0.0
2018-Jun-16 21:59N 39°34' E 002°38'0 0.0
2018-Jun-16 21:29N 39°34' E 002°38'0 0.0
2018-Jun-16 20:59N 39°34' E 002°38'0 0.0
2018-Jun-16 20:29N 39°34' E 002°38'0 0.0
2018-Jun-16 19:59N 39°34' E 002°38'0 0.0
2018-Jun-16 19:30N 39°34' E 002°38'0 0.0
2018-Jun-16 19:00N 39°34' E 002°38'0 0.0
2018-Jun-16 18:30N 39°34' E 002°38'0 0.0
2018-Jun-16 18:00N 39°34' E 002°38'0 0.0
2018-Jun-16 17:30N 39°34' E 002°38'0 0.0
2018-Jun-16 16:59N 39°34' E 002°38'0 0.0
2018-Jun-16 16:29N 39°34' E 002°38'0 0.0
2018-Jun-16 15:59N 39°34' E 002°38'0 0.0
2018-Jun-16 15:29N 39°34' E 002°38'0 0.0
2018-Jun-16 14:59N 39°34' E 002°38'0 0.0
2018-Jun-16 14:29N 39°34' E 002°38'0 0.0
2018-Jun-16 13:59N 39°34' E 002°38'0 0.0
2018-Jun-16 13:29N 39°34' E 002°38'0 0.0
2018-Jun-16 12:59N 39°34' E 002°38'0 0.0
2018-Jun-16 12:29N 39°34' E 002°38'0 0.0
2018-Jun-16 11:59N 39°34' E 002°38'0 0.0
2018-Jun-16 11:29N 39°34' E 002°38'0 0.0
2018-Jun-16 10:59N 39°34' E 002°38'0 0.0
2018-Jun-16 10:30N 39°34' E 002°38'0 0.0
2018-Jun-16 10:00N 39°34' E 002°38'0 0.0
2018-Jun-16 09:30N 39°34' E 002°38'0 0.0
2018-Jun-16 09:00N 39°34' E 002°38'0 0.0
2018-Jun-16 08:30N 39°34' E 002°38'0 0.0
2018-Jun-16 08:00N 39°34' E 002°38'0 0.0
2018-Jun-16 07:27N 39°34' E 002°38'0 0.0
2018-Jun-16 07:00N 39°34' E 002°38'0 0.0
2018-Jun-16 06:30N 39°34' E 002°38'0 0.0
2018-Jun-16 06:00N 39°34' E 002°38'0 0.0
2018-Jun-16 05:30N 39°34' E 002°38'0 0.0
2018-Jun-16 05:00N 39°34' E 002°38'0 0.0
2018-Jun-16 04:30N 39°34' E 002°38'0 0.0
2018-Jun-16 04:00N 39°34' E 002°38'0 0.0
2018-Jun-16 03:30N 39°34' E 002°38'0 0.0
2018-Jun-16 03:00N 39°34' E 002°38'0 0.0
2018-Jun-16 02:30N 39°34' E 002°38'0 0.0
2018-Jun-16 02:00N 39°34' E 002°38'0 0.0
2018-Jun-16 01:30N 39°34' E 002°38'0 0.0
2018-Jun-16 01:00N 39°34' E 002°38'0 0.0
2018-Jun-16 00:30N 39°34' E 002°38'0 0.0
2018-Jun-16 00:00N 39°34' E 002°38'0 0.0
2018-Jun-15 23:30N 39°34' E 002°38'0 0.0
2018-Jun-15 23:00N 39°34' E 002°38'0 0.0
2018-Jun-15 22:30N 39°34' E 002°38'0 0.0
2018-Jun-15 22:00N 39°34' E 002°38'0 0.0
2018-Jun-15 21:30N 39°34' E 002°38'0 0.0
2018-Jun-15 21:00N 39°34' E 002°38'0 0.0
2018-Jun-15 20:30N 39°34' E 002°38'0 0.0
2018-Jun-15 20:00N 39°34' E 002°38'0 0.0
2018-Jun-15 19:30N 39°34' E 002°38'0 0.0
2018-Jun-15 18:59N 39°34' E 002°38'0 0.0
2018-Jun-15 18:29N 39°34' E 002°38'0 0.0
2018-Jun-15 17:59N 39°34' E 002°38'0 0.0
2018-Jun-15 17:29N 39°34' E 002°38'0 0.0
2018-Jun-15 16:59N 39°34' E 002°38'0 0.0
2018-Jun-15 16:29N 39°34' E 002°38'0 0.0
2018-Jun-15 15:59N 39°34' E 002°38'0 0.0
2018-Jun-15 15:29N 39°34' E 002°38'0 0.0
2018-Jun-15 14:59N 39°34' E 002°38'0 0.0
2018-Jun-15 14:29N 39°34' E 002°38'0 0.0
2018-Jun-15 13:59N 39°34' E 002°38'0 0.0
2018-Jun-15 13:29N 39°34' E 002°38'0 0.0
2018-Jun-15 12:59N 39°34' E 002°38'0 0.0
2018-Jun-15 11:56N 39°34' E 002°38'0 0.0
2018-Jun-15 11:29N 39°34' E 002°38'0 0.0
2018-Jun-15 10:59N 39°34' E 002°38'0 0.0
2018-Jun-15 10:29N 39°34' E 002°38'0 0.0
2018-Jun-15 09:59N 39°34' E 002°38'0 0.0
2018-Jun-15 09:29N 39°34' E 002°38'0 0.0
2018-Jun-15 08:59N 39°34' E 002°38'0 0.0
2018-Jun-15 08:29N 39°34' E 002°38'0 0.0
2018-Jun-15 07:59N 39°34' E 002°38'0 0.0
2018-Jun-15 07:30N 39°34' E 002°38'0 0.0
2018-Jun-15 07:00N 39°34' E 002°38'0 0.0
2018-Jun-15 06:24N 39°34' E 002°38'0 0.0
2018-Jun-15 06:00N 39°34' E 002°38'0 0.0
2018-Jun-15 05:30N 39°34' E 002°38'0 0.0
2018-Jun-15 05:00N 39°34' E 002°38'0 0.0
2018-Jun-15 04:30N 39°34' E 002°38'0 0.0
2018-Jun-15 04:00N 39°34' E 002°38'0 0.0
2018-Jun-15 03:30N 39°34' E 002°38'0 0.0
2018-Jun-15 03:00N 39°34' E 002°38'0 0.0
2018-Jun-15 02:30N 39°34' E 002°38'0 0.0
2018-Jun-15 02:00N 39°34' E 002°38'0 0.0
2018-Jun-15 01:30N 39°34' E 002°38'0 0.0
2018-Jun-15 01:00N 39°34' E 002°38'0 0.0
2018-Jun-15 00:30N 39°34' E 002°38'0 0.0
2018-Jun-15 00:00N 39°34' E 002°38'0 0.0
2018-Jun-14 23:30N 39°34' E 002°38'0 0.0
2018-Jun-14 23:00N 39°34' E 002°38'0 0.0
2018-Jun-14 22:30N 39°34' E 002°38'0 0.0
2018-Jun-14 21:57N 39°34' E 002°38'0 0.0
2018-Jun-14 21:30N 39°34' E 002°38'0 0.0
2018-Jun-14 20:59N 39°34' E 002°38'0 0.0
2018-Jun-14 20:29N 39°34' E 002°38'0 0.0
2018-Jun-14 19:59N 39°34' E 002°38'0 0.0
2018-Jun-14 19:29N 39°34' E 002°38'0 0.0
2018-Jun-14 18:59N 39°34' E 002°38'0 0.0
2018-Jun-14 18:29N 39°34' E 002°38'0 0.0
2018-Jun-14 17:59N 39°34' E 002°38'0 0.0
2018-Jun-14 17:29N 39°34' E 002°38'0 0.0
2018-Jun-14 16:59N 39°34' E 002°38'0 0.0
2018-Jun-14 16:29N 39°34' E 002°38'0 0.0
2018-Jun-14 15:59N 39°34' E 002°38'0 0.0
2018-Jun-14 15:26N 39°34' E 002°38'0 0.0
2018-Jun-14 14:59N 39°34' E 002°38'0 0.0
2018-Jun-14 14:29N 39°34' E 002°38'0 0.0
2018-Jun-14 13:59N 39°34' E 002°38'0 0.0
2018-Jun-14 13:30N 39°34' E 002°38'0 0.0
2018-Jun-14 13:00N 39°34' E 002°38'0 0.0
2018-Jun-14 12:30N 39°34' E 002°38'0 0.0
2018-Jun-14 12:00N 39°34' E 002°38'0 0.0
2018-Jun-14 11:30N 39°34' E 002°38'0 0.0
2018-Jun-14 11:00N 39°34' E 002°38'0 0.0
2018-Jun-14 10:30N 39°34' E 002°38'0 0.0
2018-Jun-14 10:00N 39°34' E 002°38'0 0.0
2018-Jun-14 09:30N 39°34' E 002°38'0 0.0
2018-Jun-14 09:00N 39°34' E 002°38'0 0.0
2018-Jun-14 08:30N 39°34' E 002°38'0 0.0
2018-Jun-14 08:00N 39°34' E 002°38'0 0.0
2018-Jun-14 07:30N 39°34' E 002°38'0 0.0
2018-Jun-14 06:54N 39°34' E 002°38'0 0.0
2018-Jun-14 06:30N 39°34' E 002°38'0 0.0
2018-Jun-14 06:00N 39°34' E 002°38'0 0.0
2018-Jun-14 05:30N 39°34' E 002°38'0 0.0
2018-Jun-14 05:00N 39°34' E 002°38'0 0.0
2018-Jun-14 04:30N 39°34' E 002°38'0 0.0
2018-Jun-14 04:00N 39°34' E 002°38'0 0.0
2018-Jun-14 03:30N 39°34' E 002°38'0 0.0
2018-Jun-14 02:57N 39°34' E 002°38'0 0.0
2018-Jun-14 02:30N 39°34' E 002°38'0 0.0
2018-Jun-14 02:00N 39°34' E 002°38'0 0.0
2018-Jun-14 01:30N 39°34' E 002°38'0 0.0
2018-Jun-14 01:00N 39°34' E 002°38'0 0.0
2018-Jun-14 00:30N 39°34' E 002°38'0 0.0
2018-Jun-14 00:00N 39°34' E 002°38'0 0.0
2018-Jun-13 23:30N 39°34' E 002°38'0 0.0
2018-Jun-13 23:00N 39°34' E 002°38'0 0.0
2018-Jun-13 22:30N 39°34' E 002°38'0 0.0
2018-Jun-13 22:00N 39°34' E 002°38'0 0.0
2018-Jun-13 21:30N 39°34' E 002°38'0 0.0
2018-Jun-13 21:00N 39°34' E 002°38'0 0.0
2018-Jun-13 20:30N 39°34' E 002°38'0 0.0
2018-Jun-13 20:00N 39°34' E 002°38'0 0.0
2018-Jun-13 19:30N 39°34' E 002°38'0 0.0
2018-Jun-13 19:00N 39°34' E 002°38'0 0.0
2018-Jun-13 18:30N 39°34' E 002°38'0 0.0
2018-Jun-13 18:00N 39°34' E 002°38'0 0.0
2018-Jun-13 17:30N 39°34' E 002°38'0 0.0
2018-Jun-13 17:00N 39°34' E 002°38'0 0.0
2018-Jun-13 16:30N 39°34' E 002°38'0 0.0
2018-Jun-13 16:00N 39°34' E 002°38'0 0.0
2018-Jun-13 15:30N 39°34' E 002°38'0 0.0
2018-Jun-13 15:00N 39°34' E 002°38'0 0.0
2018-Jun-13 14:30N 39°34' E 002°38'0 0.0
2018-Jun-13 14:00N 39°34' E 002°38'0 0.0
2018-Jun-13 13:30N 39°34' E 002°38'0 0.0
2018-Jun-13 13:00N 39°34' E 002°38'0 0.0
2018-Jun-13 12:30N 39°34' E 002°38'0 0.0
2018-Jun-13 12:00N 39°34' E 002°38'0 0.0
2018-Jun-13 11:30N 39°34' E 002°38'0 0.0
2018-Jun-13 11:00N 39°34' E 002°38'0 0.0
2018-Jun-13 10:30N 39°34' E 002°38'0 0.0
2018-Jun-13 10:00N 39°34' E 002°38'0 0.0
2018-Jun-13 09:30N 39°34' E 002°38'0 0.0
2018-Jun-13 09:00N 39°34' E 002°38'0 0.0
2018-Jun-13 08:30N 39°34' E 002°38'0 0.0
2018-Jun-13 08:00N 39°34' E 002°38'0 0.0
2018-Jun-13 07:30N 39°34' E 002°38'0 0.0
2018-Jun-13 07:00N 39°34' E 002°38'0 0.0
2018-Jun-13 06:30N 39°34' E 002°38'0 0.0
2018-Jun-13 06:00N 39°34' E 002°38'0 0.0
2018-Jun-13 05:30N 39°34' E 002°38'0 0.0
2018-Jun-13 05:00N 39°34' E 002°38'0 0.0
2018-Jun-13 04:30N 39°34' E 002°38'0 0.0
2018-Jun-13 04:00N 39°34' E 002°38'0 0.0
2018-Jun-13 03:30N 39°34' E 002°38'0 0.0
2018-Jun-13 03:00N 39°34' E 002°38'0 0.0
2018-Jun-13 02:30N 39°34' E 002°38'0 0.0
2018-Jun-13 02:00N 39°34' E 002°38'0 0.0
2018-Jun-13 01:30N 39°34' E 002°38'0 0.0
2018-Jun-13 01:00N 39°34' E 002°38'0 0.0
2018-Jun-13 00:30N 39°34' E 002°38'0 0.0
2018-Jun-13 00:00N 39°34' E 002°38'0 0.0
2018-Jun-12 23:30N 39°34' E 002°38'0 0.0
2018-Jun-12 23:00N 39°34' E 002°38'0 0.0
2018-Jun-12 22:30N 39°34' E 002°38'0 0.0
2018-Jun-12 21:58N 39°34' E 002°38'0 0.0
2018-Jun-12 21:28N 39°34' E 002°38'0 0.0
2018-Jun-12 20:58N 39°34' E 002°38'0 0.0
2018-Jun-12 20:28N 39°34' E 002°38'0 0.0
2018-Jun-12 19:58N 39°34' E 002°38'0 0.0
2018-Jun-12 19:28N 39°34' E 002°38'0 0.0
2018-Jun-12 18:46N 39°34' E 002°38'0 0.0
2018-Jun-12 18:22N 39°34' E 002°38'0 0.0
2018-Jun-12 17:58N 39°34' E 002°38'0 0.0
2018-Jun-12 17:28N 39°34' E 002°38'0 0.0
2018-Jun-12 16:58N 39°34' E 002°38'0 0.0
2018-Jun-12 16:28N 39°34' E 002°38'0 0.0
2018-Jun-12 15:58N 39°34' E 002°38'0 0.0
2018-Jun-12 15:28N 39°34' E 002°38'0 0.0
2018-Jun-12 14:58N 39°34' E 002°38'0 0.0
2018-Jun-12 14:28N 39°34' E 002°38'0 0.0
2018-Jun-12 13:58N 39°34' E 002°38'0 0.0
2018-Jun-12 13:28N 39°34' E 002°38'0 0.0
2018-Jun-12 12:58N 39°34' E 002°38'0 0.0
2018-Jun-12 12:28N 39°34' E 002°38'0 0.0
2018-Jun-12 11:58N 39°34' E 002°38'0 0.0
2018-Jun-12 11:28N 39°34' E 002°38'0 0.0
2018-Jun-12 10:58N 39°34' E 002°38'0 0.0
2018-Jun-12 10:28N 39°34' E 002°38'0 0.0
2018-Jun-12 09:58N 39°34' E 002°38'0 0.0
2018-Jun-12 09:30N 39°34' E 002°38'0 0.0
2018-Jun-12 09:00N 39°34' E 002°38'0 0.0
2018-Jun-12 08:30N 39°34' E 002°38'  
Track history (hours):
 
Tides and Currents Weather Stations Pressure Air Temp Water Temp Dewpoint Dewpoint Depression Visibility Wind Speed Wind Dir Waves Ship Positions

Audrey II

Last reported at 2018-Jun-22 08:19 UTC. Time now 2018-Jun-24 04:55 UTC.
Position N 39°19' E 002°58'.

Length 31 m.

Type: Sailing vessel. MMSI: 319023500.

Date/timePositionNaut miles runAvg speedWind from/ knotsBaromVisibWave heightAir tempDewpointWater temp
2018-Jun-22 08:19N 39°19' E 002°58'1 2.9
2018-Jun-22 08:00N 39°20' E 002°59'0 0.0
2018-Jun-22 04:15N 39°20' E 002°59'0 0.0
2018-Jun-22 03:45N 39°20' E 002°59'0 0.0
2018-Jun-22 03:30N 39°20' E 002°59'0 0.0
2018-Jun-22 02:21N 39°20' E 002°59'0 0.0
2018-Jun-22 02:00N 39°20' E 002°59'0 0.0
2018-Jun-22 01:30N 39°20' E 002°59'0 0.0
2018-Jun-22 00:57N 39°20' E 002°59'0 0.0
2018-Jun-22 00:24N 39°20' E 002°59'0 0.0
2018-Jun-22 00:00N 39°20' E 002°59'0 0.0
2018-Jun-21 23:30N 39°20' E 002°59'0 0.0
2018-Jun-21 22:45N 39°20' E 002°59'0 0.0
2018-Jun-21 20:15N 39°20' E 002°59'0 0.0
2018-Jun-21 19:57N 39°20' E 002°59'0 0.0
2018-Jun-21 17:48N 39°20' E 002°59'0 0.0
2018-Jun-21 17:24N 39°20' E 002°59'0 0.0
2018-Jun-21 16:57N 39°20' E 002°59'0 0.0
2018-Jun-21 16:27N 39°20' E 002°59'0 0.0
2018-Jun-21 15:06N 39°20' E 002°59'0 0.0
2018-Jun-21 14:51N 39°20' E 002°59'1 3.5
2018-Jun-21 14:30N 39°20' E 002°57'8 7.6
2018-Jun-21 13:29N 39°21' E 002°47'3 6.9
2018-Jun-21 13:00N 39°24' E 002°44'3 5.7
2018-Jun-21 12:30N 39°26' E 002°42'3 5.2
2018-Jun-21 11:58N 39°29' E 002°42'1 2.0
2018-Jun-21 11:30N 39°30' E 002°43'3 5.4
2018-Jun-21 11:00N 39°32' E 002°40'2 3.1
2018-Jun-21 10:30N 39°31' E 002°42'0 1.0
2018-Jun-21 10:00N 39°31' E 002°41'3 6.2
2018-Jun-21 09:30N 39°33' E 002°38'1 1.3
2018-Jun-21 09:00N 39°34' E 002°38'0 0.0
2018-Jun-21 08:30N 39°34' E 002°38'0 0.0
2018-Jun-21 08:00N 39°34' E 002°38'0 0.0
2018-Jun-21 07:29N 39°34' E 002°38'0 0.0
2018-Jun-21 06:59N 39°34' E 002°38'0 0.0
2018-Jun-21 06:29N 39°34' E 002°38'0 0.0
2018-Jun-21 05:59N 39°34' E 002°38'0 0.0
2018-Jun-21 05:29N 39°34' E 002°38'0 0.0
2018-Jun-21 04:59N 39°34' E 002°38'0 0.0
2018-Jun-21 04:29N 39°34' E 002°38'0 0.0
2018-Jun-21 03:59N 39°34' E 002°38'0 0.0
2018-Jun-21 03:29N 39°34' E 002°38'0 0.0
2018-Jun-21 02:59N 39°34' E 002°38'0 0.0
2018-Jun-21 02:29N 39°34' E 002°38'0 0.0
2018-Jun-21 01:59N 39°34' E 002°38'0 0.0
2018-Jun-21 01:28N 39°34' E 002°38'0 0.0
2018-Jun-21 00:59N 39°34' E 002°38'0 0.0
2018-Jun-21 00:28N 39°34' E 002°38'0 0.0
2018-Jun-20 23:58N 39°34' E 002°38'0 0.0
2018-Jun-20 23:28N 39°34' E 002°38'0 0.0
2018-Jun-20 22:58N 39°34' E 002°38'0 0.0
2018-Jun-20 22:28N 39°34' E 002°38'0 0.0
2018-Jun-20 21:58N 39°34' E 002°38'0 0.0
2018-Jun-20 21:29N 39°34' E 002°38'0 0.0
2018-Jun-20 20:58N 39°34' E 002°38'0 0.0
2018-Jun-20 20:28N 39°34' E 002°38'0 0.0
2018-Jun-20 19:59N 39°34' E 002°38'0 0.0
2018-Jun-20 19:29N 39°34' E 002°38'0 0.0
2018-Jun-20 18:59N 39°34' E 002°38'0 0.0
2018-Jun-20 18:28N 39°34' E 002°38'0 0.0
2018-Jun-20 17:59N 39°34' E 002°38'0 0.0
2018-Jun-20 17:28N 39°34' E 002°38'0 0.0
2018-Jun-20 16:55N 39°34' E 002°38'0 0.0
2018-Jun-20 16:28N 39°34' E 002°38'0 0.0
2018-Jun-20 15:58N 39°34' E 002°38'0 0.0
2018-Jun-20 15:28N 39°34' E 002°38'0 0.0
2018-Jun-20 14:55N 39°34' E 002°38'0 0.0
2018-Jun-20 14:28N 39°34' E 002°38'0 0.0
2018-Jun-20 13:58N 39°34' E 002°38'0 0.0
2018-Jun-20 13:28N 39°34' E 002°38'0 0.0
2018-Jun-20 12:58N 39°34' E 002°38'0 0.0
2018-Jun-20 12:28N 39°34' E 002°38'0 0.0
2018-Jun-20 11:59N 39°34' E 002°38'0 0.0
2018-Jun-20 11:28N 39°34' E 002°38'0 0.0
2018-Jun-20 10:58N 39°34' E 002°38'0 0.0
2018-Jun-20 10:29N 39°34' E 002°38'0 0.0
2018-Jun-20 09:58N 39°34' E 002°38'0 0.0
2018-Jun-20 09:28N 39°34' E 002°38'0 0.0
2018-Jun-20 08:57N 39°34' E 002°38'0 0.0
2018-Jun-20 08:28N 39°34' E 002°38'0 0.0
2018-Jun-20 08:00N 39°34' E 002°38'0 0.0
2018-Jun-20 07:29N 39°34' E 002°38'0 0.0
2018-Jun-20 06:58N 39°34' E 002°38'0 0.0
2018-Jun-20 06:28N 39°34' E 002°38'0 0.0
2018-Jun-20 05:58N 39°34' E 002°38'0 0.0
2018-Jun-20 05:29N 39°34' E 002°38'0 0.0
2018-Jun-20 04:58N 39°34' E 002°38'0 0.0
2018-Jun-20 04:28N 39°34' E 002°38'0 0.0
2018-Jun-20 03:58N 39°34' E 002°38'0 0.0
2018-Jun-20 03:28N 39°34' E 002°38'0 0.0
2018-Jun-20 02:58N 39°34' E 002°38'0 0.0
2018-Jun-20 02:28N 39°34' E 002°38'0 0.0
2018-Jun-20 01:58N 39°34' E 002°38'0 0.0
2018-Jun-20 01:28N 39°34' E 002°38'0 0.0
2018-Jun-20 00:58N 39°34' E 002°38'0 0.0
2018-Jun-20 00:28N 39°34' E 002°38'0 0.0
2018-Jun-19 23:59N 39°34' E 002°38'0 0.0
2018-Jun-19 23:28N 39°34' E 002°38'0 0.0
2018-Jun-19 22:58N 39°34' E 002°38'0 0.0
2018-Jun-19 22:25N 39°34' E 002°38'0 0.0
2018-Jun-19 21:58N 39°34' E 002°38'0 0.0
2018-Jun-19 21:28N 39°34' E 002°38'0 0.0
2018-Jun-19 20:58N 39°34' E 002°38'0 0.0
2018-Jun-19 20:28N 39°34' E 002°38'0 0.0
2018-Jun-19 19:58N 39°34' E 002°38'0 0.0
2018-Jun-19 19:28N 39°34' E 002°38'0 0.0
2018-Jun-19 18:58N 39°34' E 002°38'0 0.0
2018-Jun-19 18:28N 39°34' E 002°38'0 0.0
2018-Jun-19 17:59N 39°34' E 002°38'0 0.0
2018-Jun-19 17:28N 39°34' E 002°38'0 0.0
2018-Jun-19 16:58N 39°34' E 002°38'0 0.0
2018-Jun-19 16:28N 39°34' E 002°38'0 0.0
2018-Jun-19 15:58N 39°34' E 002°38'0 0.0
2018-Jun-19 15:28N 39°34' E 002°38'0 0.0
2018-Jun-19 14:59N 39°34' E 002°38'0 0.0
2018-Jun-19 14:28N 39°34' E 002°38'0 0.0
2018-Jun-19 13:59N 39°34' E 002°38'0 0.0
2018-Jun-19 13:30N 39°34' E 002°38'0 0.0
2018-Jun-19 12:58N 39°34' E 002°38'0 0.0
2018-Jun-19 12:28N 39°34' E 002°38'0 0.0
2018-Jun-19 11:58N 39°34' E 002°38'0 0.0
2018-Jun-19 11:28N 39°34' E 002°38'0 0.0
2018-Jun-19 10:58N 39°34' E 002°38'0 0.0
2018-Jun-19 10:28N 39°34' E 002°38'0 0.0
2018-Jun-19 09:58N 39°34' E 002°38'0 0.0
2018-Jun-19 09:28N 39°34' E 002°38'0 0.0
2018-Jun-19 08:58N 39°34' E 002°38'0 0.0
2018-Jun-19 08:28N 39°34' E 002°38'0 0.0
2018-Jun-19 07:58N 39°34' E 002°38'0 0.0
2018-Jun-19 07:28N 39°34' E 002°38'0 0.0
2018-Jun-19 06:58N 39°34' E 002°38'0 0.0
2018-Jun-19 06:28N 39°34' E 002°38'0 0.0
2018-Jun-19 05:58N 39°34' E 002°38'0 0.0
2018-Jun-19 05:28N 39°34' E 002°38'0 0.0
2018-Jun-19 04:58N 39°34' E 002°38'0 0.0
2018-Jun-19 04:30N 39°34' E 002°38'0 0.0
2018-Jun-19 04:00N 39°34' E 002°38'0 0.0
2018-Jun-19 03:28N 39°34' E 002°38'0 0.0
2018-Jun-19 02:58N 39°34' E 002°38'0 0.0
2018-Jun-19 02:29N 39°34' E 002°38'0 0.0
2018-Jun-19 01:59N 39°34' E 002°38'0 0.0
2018-Jun-19 01:29N 39°34' E 002°38'0 0.0
2018-Jun-19 00:58N 39°34' E 002°38'0 0.0
2018-Jun-19 00:28N 39°34' E 002°38'0 0.0
2018-Jun-18 23:58N 39°34' E 002°38'0 0.0
2018-Jun-18 23:28N 39°34' E 002°38'0 0.0
2018-Jun-18 22:58N 39°34' E 002°38'0 0.0
2018-Jun-18 22:28N 39°34' E 002°38'0 0.0
2018-Jun-18 21:58N 39°34' E 002°38'0 0.0
2018-Jun-18 21:28N 39°34' E 002°38'0 0.0
2018-Jun-18 20:58N 39°34' E 002°38'0 0.0
2018-Jun-18 20:28N 39°34' E 002°38'0 0.0
2018-Jun-18 19:58N 39°34' E 002°38'0 0.0
2018-Jun-18 19:28N 39°34' E 002°38'0 0.0
2018-Jun-18 18:58N 39°34' E 002°38'0 0.0
2018-Jun-18 18:28N 39°34' E 002°38'0 0.0
2018-Jun-18 17:58N 39°34' E 002°38'0 0.0
2018-Jun-18 17:28N 39°34' E 002°38'0 0.0
2018-Jun-18 16:58N 39°34' E 002°38'0 0.0
2018-Jun-18 16:28N 39°34' E 002°38'0 0.0
2018-Jun-18 15:55N 39°34' E 002°38'0 0.0
2018-Jun-18 15:30N 39°34' E 002°38'0 0.0
2018-Jun-18 14:58N 39°34' E 002°38'0 0.0
2018-Jun-18 14:28N 39°34' E 002°38'0 0.0
2018-Jun-18 13:58N 39°34' E 002°38'0 0.0
2018-Jun-18 13:28N 39°34' E 002°38'0 0.0
2018-Jun-18 12:58N 39°34' E 002°38'0 0.0
2018-Jun-18 12:28N 39°34' E 002°38'0 0.0
2018-Jun-18 11:58N 39°34' E 002°38'0 0.0
2018-Jun-18 11:25N 39°34' E 002°38'0 0.0
2018-Jun-18 10:58N 39°34' E 002°38'0 0.0
2018-Jun-18 10:28N 39°34' E 002°38'0 0.0
2018-Jun-18 09:58N 39°34' E 002°38'0 0.0
2018-Jun-18 09:30N 39°34' E 002°38'0 0.0
2018-Jun-18 09:00N 39°34' E 002°38'0 0.0
2018-Jun-18 08:30N 39°34' E 002°38'0 0.0
2018-Jun-18 08:00N 39°34' E 002°38'0 0.0
2018-Jun-18 07:30N 39°34' E 002°38'0 0.0
2018-Jun-18 07:00N 39°34' E 002°38'0 0.0
2018-Jun-18 06:30N 39°34' E 002°38'0 0.0
2018-Jun-18 05:59N 39°34' E 002°38'0 0.0
2018-Jun-18 05:29N 39°34' E 002°38'0 0.0
2018-Jun-18 04:59N 39°34' E 002°38'0 0.0
2018-Jun-18 04:29N 39°34' E 002°38'0 0.0
2018-Jun-18 03:59N 39°34' E 002°38'0 0.0
2018-Jun-18 03:29N 39°34' E 002°38'0 0.0
2018-Jun-18 02:59N 39°34' E 002°38'0 0.0
2018-Jun-18 02:29N 39°34' E 002°38'0 0.0
2018-Jun-18 01:59N 39°34' E 002°38'0 0.0
2018-Jun-18 01:29N 39°34' E 002°38'0 0.0
2018-Jun-18 00:59N 39°34' E 002°38'0 0.0
2018-Jun-18 00:29N 39°34' E 002°38'0 0.0
2018-Jun-17 23:59N 39°34' E 002°38'0 0.0
2018-Jun-17 23:29N 39°34' E 002°38'0 0.0
2018-Jun-17 22:59N 39°34' E 002°38'0 0.0
2018-Jun-17 22:29N 39°34' E 002°38'0 0.0
2018-Jun-17 21:59N 39°34' E 002°38'0 0.0
2018-Jun-17 21:29N 39°34' E 002°38'0 0.0
2018-Jun-17 20:59N 39°34' E 002°38'0 0.0
2018-Jun-17 20:29N 39°34' E 002°38'0 0.0
2018-Jun-17 19:59N 39°34' E 002°38'0 0.0
2018-Jun-17 19:29N 39°34' E 002°38'0 0.0
2018-Jun-17 18:59N 39°34' E 002°38'0 0.0
2018-Jun-17 18:29N 39°34' E 002°38'0 0.0
2018-Jun-17 17:59N 39°34' E 002°38'0 0.0
2018-Jun-17 17:29N 39°34' E 002°38'0 0.0
2018-Jun-17 16:59N 39°34' E 002°38'0 0.0
2018-Jun-17 16:29N 39°34' E 002°38'0 0.0
2018-Jun-17 15:56N 39°34' E 002°38'0 0.0
2018-Jun-17 15:29N 39°34' E 002°38'0 0.0
2018-Jun-17 14:59N 39°34' E 002°38'0 0.0
2018-Jun-17 14:29N 39°34' E 002°38'0 0.0
2018-Jun-17 13:59N 39°34' E 002°38'0 0.0
2018-Jun-17 13:29N 39°34' E 002°38'0 0.0
2018-Jun-17 12:59N 39°34' E 002°38'0 0.0
2018-Jun-17 12:29N 39°34' E 002°38'0 0.0
2018-Jun-17 11:59N 39°34' E 002°38'0 0.0
2018-Jun-17 11:29N 39°34' E 002°38'0 0.0
2018-Jun-17 10:59N 39°34' E 002°38'0 0.0
2018-Jun-17 10:29N 39°34' E 002°38'0 0.0
2018-Jun-17 09:59N 39°34' E 002°38'0 0.0
2018-Jun-17 09:29N 39°34' E 002°38'0 0.0
2018-Jun-17 08:59N 39°34' E 002°38'0 0.0
2018-Jun-17 08:29N 39°34' E 002°38'0 0.0
2018-Jun-17 07:59N 39°34' E 002°38'0 0.0
2018-Jun-17 07:29N 39°34' E 002°38'0 0.0
2018-Jun-17 06:56N 39°34' E 002°38'0 0.0
2018-Jun-17 06:29N 39°34' E 002°38'0 0.0
2018-Jun-17 05:59N 39°34' E 002°38'0 0.0
2018-Jun-17 05:29N 39°34' E 002°38'0 0.0
2018-Jun-17 04:59N 39°34' E 002°38'0 0.0
2018-Jun-17 04:29N 39°34' E 002°38'0 0.0
2018-Jun-17 03:59N 39°34' E 002°38'0 0.0
2018-Jun-17 03:29N 39°34' E 002°38'0 0.0
2018-Jun-17 02:59N 39°34' E 002°38'0 0.0
2018-Jun-17 02:29N 39°34' E 002°38'0 0.0
2018-Jun-17 01:59N 39°34' E 002°38'0 0.0
2018-Jun-17 01:29N 39°34' E 002°38'0 0.0
2018-Jun-17 00:59N 39°34' E 002°38'0 0.0
2018-Jun-17 00:29N 39°34' E 002°38'0 0.0
2018-Jun-16 23:59N 39°34' E 002°38'0 0.0
2018-Jun-16 23:29N 39°34' E 002°38'0 0.0
2018-Jun-16 22:59N 39°34' E 002°38'0 0.0
2018-Jun-16 22:29N 39°34' E 002°38'0 0.0
2018-Jun-16 21:59N 39°34' E 002°38'0 0.0
2018-Jun-16 21:29N 39°34' E 002°38'0 0.0
2018-Jun-16 20:59N 39°34' E 002°38'0 0.0
2018-Jun-16 20:29N 39°34' E 002°38'0 0.0
2018-Jun-16 19:59N 39°34' E 002°38'0 0.0
2018-Jun-16 19:30N 39°34' E 002°38'0 0.0
2018-Jun-16 19:00N 39°34' E 002°38'0 0.0
2018-Jun-16 18:30N 39°34' E 002°38'0 0.0
2018-Jun-16 18:00N 39°34' E 002°38'0 0.0
2018-Jun-16 17:30N 39°34' E 002°38'0 0.0
2018-Jun-16 16:59N 39°34' E 002°38'0 0.0
2018-Jun-16 16:29N 39°34' E 002°38'0 0.0
2018-Jun-16 15:59N 39°34' E 002°38'0 0.0
2018-Jun-16 15:29N 39°34' E 002°38'0 0.0
2018-Jun-16 14:59N 39°34' E 002°38'0 0.0
2018-Jun-16 14:29N 39°34' E 002°38'0 0.0
2018-Jun-16 13:59N 39°34' E 002°38'0 0.0
2018-Jun-16 13:29N 39°34' E 002°38'0 0.0
2018-Jun-16 12:59N 39°34' E 002°38'0 0.0
2018-Jun-16 12:29N 39°34' E 002°38'0 0.0
2018-Jun-16 11:59N 39°34' E 002°38'0 0.0
2018-Jun-16 11:29N 39°34' E 002°38'0 0.0
2018-Jun-16 10:59N 39°34' E 002°38'0 0.0
2018-Jun-16 10:30N 39°34' E 002°38'0 0.0
2018-Jun-16 10:00N 39°34' E 002°38'0 0.0
2018-Jun-16 09:30N 39°34' E 002°38'0 0.0
2018-Jun-16 09:00N 39°34' E 002°38'0 0.0
2018-Jun-16 08:30N 39°34' E 002°38'0 0.0
2018-Jun-16 08:00N 39°34' E 002°38'0 0.0
2018-Jun-16 07:27N 39°34' E 002°38'0 0.0
2018-Jun-16 07:00N 39°34' E 002°38'0 0.0
2018-Jun-16 06:30N 39°34' E 002°38'0 0.0
2018-Jun-16 06:00N 39°34' E 002°38'0 0.0
2018-Jun-16 05:30N 39°34' E 002°38'0 0.0
2018-Jun-16 05:00N 39°34' E 002°38'0 0.0
2018-Jun-16 04:30N 39°34' E 002°38'0 0.0
2018-Jun-16 04:00N 39°34' E 002°38'0 0.0
2018-Jun-16 03:30N 39°34' E 002°38'0 0.0
2018-Jun-16 03:00N 39°34' E 002°38'0 0.0
2018-Jun-16 02:30N 39°34' E 002°38'0 0.0
2018-Jun-16 02:00N 39°34' E 002°38'0 0.0
2018-Jun-16 01:30N 39°34' E 002°38'0 0.0
2018-Jun-16 01:00N 39°34' E 002°38'0 0.0
2018-Jun-16 00:30N 39°34' E 002°38'0 0.0
2018-Jun-16 00:00N 39°34' E 002°38'0 0.0
2018-Jun-15 23:30N 39°34' E 002°38'0 0.0
2018-Jun-15 23:00N 39°34' E 002°38'0 0.0
2018-Jun-15 22:30N 39°34' E 002°38'0 0.0
2018-Jun-15 22:00N 39°34' E 002°38'0 0.0
2018-Jun-15 21:30N 39°34' E 002°38'0 0.0
2018-Jun-15 21:00N 39°34' E 002°38'0 0.0
2018-Jun-15 20:30N 39°34' E 002°38'0 0.0
2018-Jun-15 20:00N 39°34' E 002°38'0 0.0
2018-Jun-15 19:30N 39°34' E 002°38'0 0.0
2018-Jun-15 18:59N 39°34' E 002°38'0 0.0
2018-Jun-15 18:29N 39°34' E 002°38'0 0.0
2018-Jun-15 17:59N 39°34' E 002°38'0 0.0
2018-Jun-15 17:29N 39°34' E 002°38'0 0.0
2018-Jun-15 16:59N 39°34' E 002°38'0 0.0
2018-Jun-15 16:29N 39°34' E 002°38'0 0.0
2018-Jun-15 15:59N 39°34' E 002°38'0 0.0
2018-Jun-15 15:29N 39°34' E 002°38'0 0.0
2018-Jun-15 14:59N 39°34' E 002°38'0 0.0
2018-Jun-15 14:29N 39°34' E 002°38'0 0.0
2018-Jun-15 13:59N 39°34' E 002°38'0 0.0
2018-Jun-15 13:29N 39°34' E 002°38'0 0.0
2018-Jun-15 12:59N 39°34' E 002°38'0 0.0
2018-Jun-15 11:56N 39°34' E 002°38'0 0.0
2018-Jun-15 11:29N 39°34' E 002°38'0 0.0
2018-Jun-15 10:59N 39°34' E 002°38'0 0.0
2018-Jun-15 10:29N 39°34' E 002°38'0 0.0
2018-Jun-15 09:59N 39°34' E 002°38'0 0.0
2018-Jun-15 09:29N 39°34' E 002°38'0 0.0
2018-Jun-15 08:59N 39°34' E 002°38'0 0.0
2018-Jun-15 08:29N 39°34' E 002°38'0 0.0
2018-Jun-15 07:59N 39°34' E 002°38'0 0.0
2018-Jun-15 07:30N 39°34' E 002°38'0 0.0
2018-Jun-15 07:00N 39°34' E 002°38'0 0.0
2018-Jun-15 06:24N 39°34' E 002°38'0 0.0
2018-Jun-15 06:00N 39°34' E 002°38'0 0.0
2018-Jun-15 05:30N 39°34' E 002°38'0 0.0
2018-Jun-15 05:00N 39°34' E 002°38'0 0.0
2018-Jun-15 04:30N 39°34' E 002°38'0 0.0
2018-Jun-15 04:00N 39°34' E 002°38'0 0.0
2018-Jun-15 03:30N 39°34' E 002°38'0 0.0
2018-Jun-15 03:00N 39°34' E 002°38'0 0.0
2018-Jun-15 02:30N 39°34' E 002°38'0 0.0
2018-Jun-15 02:00N 39°34' E 002°38'0 0.0
2018-Jun-15 01:30N 39°34' E 002°38'0 0.0
2018-Jun-15 01:00N 39°34' E 002°38'0 0.0
2018-Jun-15 00:30N 39°34' E 002°38'0 0.0
2018-Jun-15 00:00N 39°34' E 002°38'0 0.0
2018-Jun-14 23:30N 39°34' E 002°38'0 0.0
2018-Jun-14 23:00N 39°34' E 002°38'0 0.0
2018-Jun-14 22:30N 39°34' E 002°38'0 0.0
2018-Jun-14 21:57N 39°34' E 002°38'0 0.0
2018-Jun-14 21:30N 39°34' E 002°38'0 0.0
2018-Jun-14 20:59N 39°34' E 002°38'0 0.0
2018-Jun-14 20:29N 39°34' E 002°38'0 0.0
2018-Jun-14 19:59N 39°34' E 002°38'0 0.0
2018-Jun-14 19:29N 39°34' E 002°38'0 0.0
2018-Jun-14 18:59N 39°34' E 002°38'0 0.0
2018-Jun-14 18:29N 39°34' E 002°38'0 0.0
2018-Jun-14 17:59N 39°34' E 002°38'0 0.0
2018-Jun-14 17:29N 39°34' E 002°38'0 0.0
2018-Jun-14 16:59N 39°34' E 002°38'0 0.0
2018-Jun-14 16:29N 39°34' E 002°38'0 0.0
2018-Jun-14 15:59N 39°34' E 002°38'0 0.0
2018-Jun-14 15:26N 39°34' E 002°38'0 0.0
2018-Jun-14 14:59N 39°34' E 002°38'0 0.0
2018-Jun-14 14:29N 39°34' E 002°38'0 0.0
2018-Jun-14 13:59N 39°34' E 002°38'0 0.0
2018-Jun-14 13:30N 39°34' E 002°38'0 0.0
2018-Jun-14 13:00N 39°34' E 002°38'0 0.0
2018-Jun-14 12:30N 39°34' E 002°38'0 0.0
2018-Jun-14 12:00N 39°34' E 002°38'0 0.0
2018-Jun-14 11:30N 39°34' E 002°38'0 0.0
2018-Jun-14 11:00N 39°34' E 002°38'0 0.0
2018-Jun-14 10:30N 39°34' E 002°38'0 0.0
2018-Jun-14 10:00N 39°34' E 002°38'0 0.0
2018-Jun-14 09:30N 39°34' E 002°38'0 0.0
2018-Jun-14 09:00N 39°34' E 002°38'0 0.0
2018-Jun-14 08:30N 39°34' E 002°38'0 0.0
2018-Jun-14 08:00N 39°34' E 002°38'0 0.0
2018-Jun-14 07:30N 39°34' E 002°38'0 0.0
2018-Jun-14 06:54N 39°34' E 002°38'0 0.0
2018-Jun-14 06:30N 39°34' E 002°38'0 0.0
2018-Jun-14 06:00N 39°34' E 002°38'0 0.0
2018-Jun-14 05:30N 39°34' E 002°38'0 0.0
2018-Jun-14 05:00N 39°34' E 002°38'0 0.0
2018-Jun-14 04:30N 39°34' E 002°38'0 0.0
2018-Jun-14 04:00N 39°34' E 002°38'0 0.0
2018-Jun-14 03:30N 39°34' E 002°38'0 0.0
2018-Jun-14 02:57N 39°34' E 002°38'0 0.0
2018-Jun-14 02:30N 39°34' E 002°38'0 0.0
2018-Jun-14 02:00N 39°34' E 002°38'0 0.0
2018-Jun-14 01:30N 39°34' E 002°38'0 0.0
2018-Jun-14 01:00N 39°34' E 002°38'0 0.0
2018-Jun-14 00:30N 39°34' E 002°38'0 0.0
2018-Jun-14 00:00N 39°34' E 002°38'0 0.0
2018-Jun-13 23:30N 39°34' E 002°38'0 0.0
2018-Jun-13 23:00N 39°34' E 002°38'0 0.0
2018-Jun-13 22:30N 39°34' E 002°38'0 0.0
2018-Jun-13 22:00N 39°34' E 002°38'0 0.0
2018-Jun-13 21:30N 39°34' E 002°38'0 0.0
2018-Jun-13 21:00N 39°34' E 002°38'0 0.0
2018-Jun-13 20:30N 39°34' E 002°38'0 0.0
2018-Jun-13 20:00N 39°34' E 002°38'0 0.0
2018-Jun-13 19:30N 39°34' E 002°38'0 0.0
2018-Jun-13 19:00N 39°34' E 002°38'0 0.0
2018-Jun-13 18:30N 39°34' E 002°38'0 0.0
2018-Jun-13 18:00N 39°34' E 002°38'0 0.0
2018-Jun-13 17:30N 39°34' E 002°38'0 0.0
2018-Jun-13 17:00N 39°34' E 002°38'0 0.0
2018-Jun-13 16:30N 39°34' E 002°38'0 0.0
2018-Jun-13 16:00N 39°34' E 002°38'0 0.0
2018-Jun-13 15:30N 39°34' E 002°38'0 0.0
2018-Jun-13 15:00N 39°34' E 002°38'0 0.0
2018-Jun-13 14:30N 39°34' E 002°38'0 0.0
2018-Jun-13 14:00N 39°34' E 002°38'0 0.0
2018-Jun-13 13:30N 39°34' E 002°38'0 0.0
2018-Jun-13 13:00N 39°34' E 002°38'0 0.0
2018-Jun-13 12:30N 39°34' E 002°38'0 0.0
2018-Jun-13 12:00N 39°34' E 002°38'0 0.0
2018-Jun-13 11:30N 39°34' E 002°38'0 0.0
2018-Jun-13 11:00N 39°34' E 002°38'0 0.0
2018-Jun-13 10:30N 39°34' E 002°38'0 0.0
2018-Jun-13 10:00N 39°34' E 002°38'0 0.0
2018-Jun-13 09:30N 39°34' E 002°38'0 0.0
2018-Jun-13 09:00N 39°34' E 002°38'0 0.0
2018-Jun-13 08:30N 39°34' E 002°38'0 0.0
2018-Jun-13 08:00N 39°34' E 002°38'0 0.0
2018-Jun-13 07:30N 39°34' E 002°38'0 0.0
2018-Jun-13 07:00N 39°34' E 002°38'0 0.0
2018-Jun-13 06:30N 39°34' E 002°38'0 0.0
2018-Jun-13 06:00N 39°34' E 002°38'0 0.0
2018-Jun-13 05:30N 39°34' E 002°38'0 0.0
2018-Jun-13 05:00N 39°34' E 002°38'0 0.0
2018-Jun-13 04:30N 39°34' E 002°38'0 0.0
2018-Jun-13 04:00N 39°34' E 002°38'0 0.0
2018-Jun-13 03:30N 39°34' E 002°38'0 0.0
2018-Jun-13 03:00N 39°34' E 002°38'0 0.0
2018-Jun-13 02:30N 39°34' E 002°38'0 0.0
2018-Jun-13 02:00N 39°34' E 002°38'0 0.0
2018-Jun-13 01:30N 39°34' E 002°38'0 0.0
2018-Jun-13 01:00N 39°34' E 002°38'0 0.0
2018-Jun-13 00:30N 39°34' E 002°38'0 0.0
2018-Jun-13 00:00N 39°34' E 002°38'0 0.0
2018-Jun-12 23:30N 39°34' E 002°38'0 0.0
2018-Jun-12 23:00N 39°34' E 002°38'0 0.0
2018-Jun-12 22:30N 39°34' E 002°38'0 0.0
2018-Jun-12 21:58N 39°34' E 002°38'0 0.0
2018-Jun-12 21:28N 39°34' E 002°38'0 0.0
2018-Jun-12 20:58N 39°34' E 002°38'0 0.0
2018-Jun-12 20:28N 39°34' E 002°38'0 0.0
2018-Jun-12 19:58N 39°34' E 002°38'0 0.0
2018-Jun-12 19:28N 39°34' E 002°38'0 0.0
2018-Jun-12 18:46N 39°34' E 002°38'0 0.0
2018-Jun-12 18:22N 39°34' E 002°38'0 0.0
2018-Jun-12 17:58N 39°34' E 002°38'0 0.0
2018-Jun-12 17:28N 39°34' E 002°38'0 0.0
2018-Jun-12 16:58N 39°34' E 002°38'0 0.0
2018-Jun-12 16:28N 39°34' E 002°38'0 0.0
2018-Jun-12 15:58N 39°34' E 002°38'0 0.0
2018-Jun-12 15:28N 39°34' E 002°38'0 0.0
2018-Jun-12 14:58N 39°34' E 002°38'0 0.0
2018-Jun-12 14:28N 39°34' E 002°38'0 0.0
2018-Jun-12 13:58N 39°34' E 002°38'0 0.0
2018-Jun-12 13:28N 39°34' E 002°38'0 0.0
2018-Jun-12 12:58N 39°34' E 002°38'0 0.0
2018-Jun-12 12:28N 39°34' E 002°38'0 0.0
2018-Jun-12 11:58N 39°34' E 002°38'0 0.0
2018-Jun-12 11:28N 39°34' E 002°38'0 0.0
2018-Jun-12 10:58N 39°34' E 002°38'0 0.0
2018-Jun-12 10:28N 39°34' E 002°38'0 0.0
2018-Jun-12 09:58N 39°34' E 002°38'0 0.0
2018-Jun-12 09:30N 39°34' E 002°38'0 0.0
2018-Jun-12 09:00N 39°34' E 002°38'0 0.0
2018-Jun-12 08:30N 39°34' E 002°38'  

Dump ship's entire track history